createdAt,value
2022-10-18T00:01:19.594Z,68.03
2022-10-18T00:03:49.623Z,76.40
2022-10-18T00:06:19.547Z,54.03
2022-10-18T00:08:49.871Z,64.78
2022-10-18T00:11:19.915Z,74.55
2022-10-18T00:13:49.916Z,79.93
2022-10-18T00:16:20.065Z,74.72
2022-10-18T00:18:50.052Z,85.63
2022-10-18T00:21:20.852Z,85.65
2022-10-18T00:23:50.991Z,79.43
2022-10-18T00:26:27.775Z,86.95
2022-10-18T00:28:58.665Z,82.10
2022-10-18T00:31:30.726Z,57.50
2022-10-18T00:34:01.569Z,69.03
2022-10-18T00:36:32.173Z,36.45
2022-10-18T00:39:02.419Z,33.05
2022-10-18T00:41:32.985Z,30.05
2022-10-18T00:44:03.361Z,29.55
2022-10-18T00:46:34.306Z,50.67
2022-10-18T00:49:05.758Z,30.98
2022-10-18T00:51:41.174Z,38.00
2022-10-18T00:54:11.937Z,35.83
2022-10-18T00:56:42.027Z,34.22
2022-10-18T00:59:12.006Z,35.33
2022-10-18T01:01:42.356Z,21.52
2022-10-18T01:04:16.014Z,25.13
2022-10-18T01:07:06.336Z,22.98
2022-10-18T01:10:03.395Z,32.17
2022-10-18T01:12:51.586Z,30.50
2022-10-18T01:15:42.881Z,15.73
2022-10-18T01:18:13.594Z,28.80
2022-10-18T01:20:52.785Z,26.65
2022-10-18T01:23:51.999Z,30.85
2022-10-18T01:26:40.372Z,20.23
2022-10-18T01:29:19.093Z,28.40
2022-10-18T01:31:49.568Z,25.00
2022-10-18T01:34:25.058Z,33.55
2022-10-18T01:36:55.591Z,31.95
2022-10-18T01:39:32.109Z,23.83
2022-10-18T01:42:02.152Z,23.08
2022-10-18T01:44:32.187Z,33.92
2022-10-18T01:47:02.171Z,19.88
2022-10-18T01:49:32.293Z,27.73
2022-10-18T01:52:02.310Z,28.63
2022-10-18T01:54:36.355Z,26.98
2022-10-18T01:57:08.960Z,18.77
2022-10-18T01:59:43.544Z,18.23
2022-10-18T02:02:39.672Z,15.55
2022-10-18T02:05:12.808Z,15.75
2022-10-18T02:07:42.726Z,20.50
2022-10-18T02:10:16.418Z,17.25
2022-10-18T02:12:47.099Z,19.95
2022-10-18T02:15:18.523Z,30.73
2022-10-18T02:17:48.910Z,35.17
2022-10-18T02:20:20.104Z,13.77
2022-10-18T02:22:51.362Z,32.90
2022-10-18T02:25:23.340Z,28.50
2022-10-18T02:27:57.154Z,24.42
2022-10-18T02:30:30.049Z,18.88
2022-10-18T02:33:20.395Z,19.25
2022-10-18T02:35:52.164Z,23.42
2022-10-18T02:38:22.511Z,30.42
2022-10-18T02:40:52.529Z,25.40
2022-10-18T02:43:22.592Z,17.75
2022-10-18T02:45:52.518Z,26.50
2022-10-18T02:48:22.497Z,32.85
2022-10-18T02:50:53.615Z,24.02
2022-10-18T02:53:23.682Z,16.67
2022-10-18T02:55:53.751Z,13.82
2022-10-18T02:58:23.704Z,20.50
2022-10-18T03:00:53.714Z,17.88
2022-10-18T03:03:23.609Z,18.50
2022-10-18T03:05:53.820Z,21.40
2022-10-18T03:08:24.059Z,23.17
2022-10-18T03:10:54.336Z,22.80
2022-10-18T03:13:24.354Z,16.10
2022-10-18T03:15:54.412Z,17.88
2022-10-18T03:18:24.318Z,17.83
2022-10-18T03:20:54.278Z,17.90
2022-10-18T03:23:24.219Z,26.00
2022-10-18T03:25:54.186Z,23.63
2022-10-18T03:28:24.267Z,21.90
2022-10-18T03:30:54.377Z,12.75
2022-10-18T03:33:24.320Z,19.30
2022-10-18T03:35:54.270Z,20.88
2022-10-18T03:38:24.386Z,31.70
2022-10-18T03:40:54.333Z,21.98
2022-10-18T03:43:24.514Z,29.05
2022-10-18T03:45:54.582Z,29.25
2022-10-18T03:48:24.607Z,25.40
2022-10-18T03:50:54.640Z,20.70
2022-10-18T03:53:24.615Z,25.85
2022-10-18T03:55:55.027Z,22.05
2022-10-18T03:58:25.158Z,28.15
2022-10-18T04:00:56.861Z,31.00
2022-10-18T04:03:27.431Z,18.23
2022-10-18T04:05:58.149Z,28.27
2022-10-18T04:08:28.317Z,15.50
2022-10-18T04:10:58.326Z,20.20
2022-10-18T04:13:28.385Z,17.85
2022-10-18T04:15:58.312Z,13.45
2022-10-18T04:18:28.289Z,28.10
2022-10-18T04:20:58.314Z,21.48
2022-10-18T04:23:31.797Z,16.98
2022-10-18T04:26:04.917Z,12.75
2022-10-18T04:28:35.395Z,10.25
2022-10-18T04:31:05.577Z,17.60
2022-10-18T04:33:35.625Z,11.55
2022-10-18T04:36:05.931Z,21.48
2022-10-18T04:38:35.939Z,17.35
2022-10-18T04:41:05.852Z,19.38
2022-10-18T04:43:35.888Z,23.30
2022-10-18T04:46:05.956Z,21.27
2022-10-18T04:48:35.870Z,21.50
2022-10-18T04:51:05.999Z,23.17
2022-10-18T04:53:35.943Z,20.92
2022-10-18T04:56:05.963Z,28.90
2022-10-18T04:58:35.873Z,13.55
2022-10-18T05:01:09.221Z,16.23
2022-10-18T05:03:39.262Z,12.10
2022-10-18T05:06:09.347Z,17.15
2022-10-18T05:08:39.687Z,26.73
2022-10-18T05:13:40.494Z,23.50
2022-10-18T05:16:10.484Z,28.63
2022-10-18T05:18:40.456Z,34.90
2022-10-18T05:21:10.435Z,67.47
2022-10-18T05:23:40.529Z,42.03
2022-10-18T05:26:10.807Z,29.98
2022-10-18T05:28:41.450Z,33.90
2022-10-18T05:31:13.717Z,31.50
2022-10-18T05:33:46.514Z,59.00
2022-10-18T05:36:16.737Z,27.70
2022-10-18T05:38:46.801Z,47.83
2022-10-18T05:41:17.345Z,54.05
2022-10-18T05:43:49.304Z,37.25
2022-10-18T05:46:19.311Z,41.55
2022-10-18T05:48:52.356Z,59.63
2022-10-18T05:51:23.007Z,53.90
2022-10-18T05:53:54.197Z,48.63
2022-10-18T05:56:24.534Z,38.22
2022-10-18T05:58:54.599Z,56.65
2022-10-18T06:01:25.179Z,69.35
2022-10-18T06:03:55.603Z,54.75
2022-10-18T06:06:25.544Z,55.70
2022-10-18T06:08:55.556Z,69.45
2022-10-18T06:11:25.552Z,68.85
2022-10-18T06:13:55.532Z,65.43
2022-10-18T06:16:29.823Z,79.85
2022-10-18T06:19:02.743Z,86.30
2022-10-18T06:21:32.989Z,82.65
2022-10-18T06:24:03.555Z,136.20
2022-10-18T06:26:33.538Z,114.38
2022-10-18T06:29:03.544Z,103.72
2022-10-18T06:31:33.574Z,49.25
2022-10-18T06:34:03.895Z,32.70
2022-10-18T06:36:34.161Z,54.45
2022-10-18T06:39:04.164Z,108.28
2022-10-18T06:41:34.095Z,54.58
2022-10-18T06:44:21.619Z,73.22
2022-10-18T06:46:52.759Z,74.10
2022-10-18T06:49:22.969Z,57.05
2022-10-18T06:51:52.906Z,59.67
2022-10-18T06:54:22.853Z,78.20
2022-10-18T06:56:52.822Z,47.63
2022-10-18T06:59:24.324Z,43.25
2022-10-18T07:01:56.347Z,57.58
2022-10-18T07:04:26.327Z,67.68
2022-10-18T07:06:56.529Z,59.35
2022-10-18T07:09:26.631Z,62.38
2022-10-18T07:11:56.884Z,48.30
2022-10-18T07:14:29.158Z,52.08
2022-10-18T07:17:01.129Z,46.90
2022-10-18T07:19:31.892Z,49.72
2022-10-18T07:22:01.939Z,56.17
2022-10-18T07:27:03.388Z,53.22
2022-10-18T07:29:33.507Z,53.22
2022-10-18T07:32:03.824Z,56.33
2022-10-18T07:34:34.471Z,75.30
2022-10-18T07:37:04.854Z,53.65
2022-10-18T07:39:35.102Z,49.08
2022-10-18T07:42:05.321Z,52.58
2022-10-18T07:44:35.558Z,49.22
2022-10-18T07:47:05.608Z,40.97
2022-10-18T07:49:35.838Z,61.22
2022-10-18T07:52:06.013Z,31.20
2022-10-18T07:54:36.116Z,38.10
2022-10-18T07:57:06.607Z,46.63
2022-10-18T07:59:36.565Z,38.80
2022-10-18T08:02:06.639Z,35.22
2022-10-18T08:04:37.068Z,41.10
2022-10-18T08:07:07.788Z,25.17
2022-10-18T08:09:38.017Z,17.95
2022-10-18T08:12:08.109Z,14.30
2022-10-18T08:14:38.430Z,20.95
2022-10-18T08:17:08.325Z,17.63
2022-10-18T08:19:41.298Z,18.60
2022-10-18T08:22:14.688Z,20.20
2022-10-18T08:24:44.910Z,14.25
2022-10-18T08:27:14.877Z,17.08
2022-10-18T08:29:44.895Z,17.48
2022-10-18T08:32:15.591Z,21.40
2022-10-18T08:34:46.344Z,17.23
2022-10-18T08:37:16.353Z,11.48
2022-10-18T08:39:46.275Z,11.52
2022-10-18T08:42:36.359Z,12.52
2022-10-18T08:45:12.581Z,15.98
2022-10-18T08:47:54.933Z,10.23
2022-10-18T08:50:26.623Z,20.25
2022-10-18T08:53:00.652Z,16.17
2022-10-18T08:55:37.236Z,15.40
2022-10-18T08:58:15.752Z,16.70
2022-10-18T09:00:48.517Z,11.05
2022-10-18T09:03:25.117Z,15.60
2022-10-18T09:05:57.217Z,3.95
2022-10-18T09:08:30.536Z,19.23
2022-10-18T09:11:29.990Z,5.10
2022-10-18T09:14:06.341Z,6.97
2022-10-18T09:16:46.491Z,11.45
2022-10-18T09:19:30.362Z,15.55
2022-10-18T09:22:11.836Z,10.57
2022-10-18T09:24:42.944Z,11.20
2022-10-18T09:27:14.855Z,11.40
2022-10-18T09:29:53.904Z,11.20
2022-10-18T09:32:27.031Z,9.57
2022-10-18T09:35:01.428Z,16.27
2022-10-18T09:37:31.918Z,12.10
2022-10-18T09:40:18.092Z,12.93
2022-10-18T09:42:58.264Z,13.13
2022-10-18T09:45:39.104Z,9.57
2022-10-18T09:48:20.350Z,13.38
2022-10-18T09:50:55.142Z,18.23
2022-10-18T09:53:43.710Z,21.20
2022-10-18T09:56:15.114Z,13.38
2022-10-18T09:58:46.677Z,10.80
2022-10-18T10:01:18.133Z,15.50
2022-10-18T10:03:48.106Z,17.45
2022-10-18T10:06:21.020Z,42.20
2022-10-18T10:08:51.548Z,34.85
2022-10-18T10:11:30.821Z,26.65
2022-10-18T10:14:10.692Z,31.25
2022-10-18T10:16:49.376Z,19.08
2022-10-18T10:19:24.425Z,22.98
2022-10-18T10:21:55.828Z,18.30
2022-10-18T10:24:32.059Z,22.50
2022-10-18T10:27:03.146Z,15.77
2022-10-18T10:29:44.859Z,24.75
2022-10-18T10:32:19.201Z,21.05
2022-10-18T10:34:49.464Z,19.35
2022-10-18T10:37:25.355Z,25.75
2022-10-18T10:40:31.692Z,32.80
2022-10-18T10:43:18.155Z,22.08
2022-10-18T10:46:02.116Z,117.13
2022-10-18T10:48:37.017Z,136.40
2022-10-18T10:51:08.800Z,176.27
2022-10-18T10:53:38.834Z,173.52
2022-10-18T10:56:15.803Z,172.27
2022-10-18T10:58:46.250Z,175.63
2022-10-18T11:01:23.098Z,164.55
2022-10-18T11:03:53.793Z,153.40
2022-10-18T11:06:42.003Z,169.05
2022-10-18T11:09:18.897Z,160.93
2022-10-18T11:11:51.821Z,164.45
2022-10-18T11:14:27.104Z,214.63
2022-10-18T11:17:16.497Z,222.20
2022-10-18T11:19:52.914Z,221.82
2022-10-18T11:22:23.426Z,228.15
2022-10-18T11:24:53.468Z,191.73
2022-10-18T11:27:29.552Z,207.85
2022-10-18T11:30:18.245Z,205.40
2022-10-18T11:32:51.687Z,113.43
2022-10-18T11:35:29.231Z,120.43
2022-10-18T11:37:59.329Z,112.57
2022-10-18T11:40:35.223Z,119.38
2022-10-18T11:43:14.737Z,125.20
2022-10-18T11:45:47.284Z,130.38
2022-10-18T11:48:25.900Z,109.05
2022-10-18T11:51:04.885Z,112.38
2022-10-18T11:53:34.899Z,107.55
2022-10-18T11:56:08.846Z,107.90
2022-10-18T11:58:41.003Z,112.97
2022-10-18T12:01:17.320Z,108.28
2022-10-18T12:03:53.857Z,111.30
2022-10-18T12:06:24.917Z,97.47
2022-10-18T12:09:01.015Z,104.45
2022-10-18T12:11:41.040Z,119.72
2022-10-18T12:14:22.158Z,80.70
2022-10-18T12:17:02.089Z,106.85
2022-10-18T12:19:43.998Z,88.82
2022-10-18T12:22:20.915Z,97.63
2022-10-18T12:27:20.750Z,108.03
2022-10-18T12:29:56.200Z,110.57
2022-10-18T12:32:30.916Z,87.25
2022-10-18T12:35:02.735Z,97.07
2022-10-18T12:37:39.194Z,90.60
2022-10-18T12:40:16.798Z,86.68
2022-10-18T12:42:49.735Z,92.55
2022-10-18T12:45:35.990Z,98.32
2022-10-18T12:48:09.444Z,92.78
2022-10-18T12:50:39.660Z,90.80
2022-10-18T12:53:13.534Z,79.97
2022-10-18T12:55:47.180Z,75.50
2022-10-18T12:58:17.104Z,90.78
2022-10-18T13:00:48.631Z,92.53
2022-10-18T13:03:19.242Z,92.80
2022-10-18T13:05:55.214Z,91.53
2022-10-18T13:08:31.422Z,101.85
2022-10-18T13:11:11.164Z,97.30
2022-10-18T13:13:41.407Z,105.65
2022-10-18T13:16:17.390Z,87.00
2022-10-18T13:18:52.274Z,96.32
2022-10-18T13:21:22.640Z,86.90
2022-10-18T13:24:12.722Z,97.53
2022-10-18T13:26:59.063Z,100.22
2022-10-18T13:29:40.018Z,83.80
2022-10-18T13:32:29.486Z,102.40
2022-10-18T13:34:59.522Z,103.10
2022-10-18T13:37:30.395Z,94.85
2022-10-18T13:40:25.315Z,109.75
2022-10-18T13:42:55.216Z,112.03
2022-10-18T13:45:34.285Z,121.63
2022-10-18T13:48:30.364Z,119.88
2022-10-18T13:51:01.945Z,107.20
2022-10-18T13:53:36.742Z,120.72
2022-10-18T13:56:15.873Z,114.68
2022-10-18T13:58:49.249Z,116.03
2022-10-18T14:01:40.375Z,114.68
2022-10-18T14:06:45.231Z,117.72
2022-10-18T14:09:40.431Z,155.23
2022-10-18T14:12:21.486Z,133.57
2022-10-18T14:15:17.372Z,109.28
2022-10-18T14:17:48.795Z,118.97
2022-10-18T14:20:29.398Z,130.45
2022-10-18T14:23:09.209Z,121.53
2022-10-18T14:25:39.480Z,104.55
2022-10-18T14:28:11.547Z,113.60
2022-10-18T14:30:57.746Z,118.05
2022-10-18T14:33:38.135Z,113.45
2022-10-18T14:36:17.769Z,112.50
2022-10-18T14:38:51.441Z,94.90
2022-10-18T14:41:28.525Z,108.65
2022-10-18T14:44:16.675Z,128.38
2022-10-18T14:46:50.965Z,100.05
2022-10-18T14:49:21.792Z,119.85
2022-10-18T14:51:52.842Z,122.22
2022-10-18T14:54:26.088Z,104.30
2022-10-18T14:56:59.199Z,110.88
2022-10-18T14:59:29.733Z,109.78
2022-10-18T15:02:01.191Z,103.68
2022-10-18T15:04:34.359Z,93.25
2022-10-18T15:07:08.069Z,89.68
2022-10-18T15:09:38.369Z,81.65
2022-10-18T15:12:08.436Z,64.57
2022-10-18T15:14:38.442Z,74.50
2022-10-18T15:17:15.422Z,70.07
2022-10-18T15:19:55.380Z,70.47
2022-10-18T15:22:31.905Z,73.75
2022-10-18T15:25:08.854Z,71.03
2022-10-18T15:27:39.962Z,83.07
2022-10-18T15:30:12.194Z,74.03
2022-10-18T15:32:44.450Z,76.68
2022-10-18T15:35:25.935Z,74.07
2022-10-18T15:37:57.261Z,88.60
2022-10-18T15:40:27.322Z,60.72
2022-10-18T15:42:58.215Z,86.03
2022-10-18T15:45:29.197Z,63.05
2022-10-18T15:48:07.156Z,68.93
2022-10-18T15:50:44.371Z,67.85
2022-10-18T15:53:34.627Z,64.63
2022-10-18T15:56:09.527Z,68.18
2022-10-18T15:58:49.615Z,73.50
2022-10-18T16:01:20.365Z,71.13
2022-10-18T16:03:50.468Z,65.22
2022-10-18T16:06:20.554Z,76.95
2022-10-18T16:08:52.246Z,80.07
2022-10-18T16:11:24.245Z,83.38
2022-10-18T16:13:57.825Z,76.55
2022-10-18T16:16:30.694Z,81.93
2022-10-18T16:19:01.057Z,105.72
2022-10-18T16:21:33.083Z,96.15
2022-10-18T16:24:03.434Z,120.18
2022-10-18T16:26:33.474Z,102.20
2022-10-18T16:29:03.618Z,129.57
2022-10-18T16:31:35.435Z,139.77
2022-10-18T16:34:06.479Z,149.60
2022-10-18T16:36:36.483Z,151.75
2022-10-18T16:39:10.078Z,143.18
2022-10-18T16:41:40.078Z,123.93
2022-10-18T16:44:10.018Z,144.85
2022-10-18T16:46:40.027Z,120.13
2022-10-18T16:49:11.194Z,117.30
2022-10-18T16:51:41.230Z,119.22
2022-10-18T16:54:11.243Z,126.28
2022-10-18T16:56:41.108Z,131.05
2022-10-18T16:59:11.762Z,142.57
2022-10-18T17:01:41.997Z,150.88
2022-10-18T17:04:12.257Z,141.27
2022-10-18T17:06:42.234Z,114.47
2022-10-18T17:09:12.944Z,105.43
2022-10-18T17:11:43.489Z,95.50
2022-10-18T17:14:13.701Z,108.82
2022-10-18T17:16:45.585Z,110.30
2022-10-18T17:19:18.804Z,114.90
2022-10-18T17:21:48.926Z,102.88
2022-10-18T17:24:19.235Z,80.60
2022-10-18T17:26:49.215Z,102.28
2022-10-18T17:29:19.241Z,90.07
2022-10-18T17:31:49.290Z,84.97
2022-10-18T17:34:21.447Z,93.53
2022-10-18T17:36:51.835Z,91.18
2022-10-18T17:39:21.932Z,97.22
2022-10-18T17:41:52.276Z,102.25
2022-10-18T17:44:22.578Z,108.43
2022-10-18T17:46:52.514Z,100.43
2022-10-18T17:49:23.346Z,93.43
2022-10-18T17:51:53.781Z,91.65
2022-10-18T17:54:24.115Z,96.90
2022-10-18T17:56:54.707Z,78.88
2022-10-18T17:59:24.732Z,77.00
2022-10-18T18:01:55.237Z,75.47
2022-10-18T18:04:26.832Z,76.32
2022-10-18T18:06:58.405Z,73.70
2022-10-18T18:09:29.124Z,102.32
2022-10-18T18:11:59.230Z,98.32
2022-10-18T18:14:29.559Z,71.85
2022-10-18T18:16:59.504Z,85.70
2022-10-18T18:19:29.445Z,88.22
2022-10-18T18:22:00.376Z,98.68
2022-10-18T18:24:31.126Z,92.88
2022-10-18T18:27:01.443Z,78.65
2022-10-18T18:29:31.457Z,71.38
2022-10-18T18:32:01.808Z,62.80
2022-10-18T18:34:32.085Z,51.95
2022-10-18T18:37:02.138Z,40.53
2022-10-18T18:39:36.378Z,59.65
2022-10-18T18:42:06.932Z,48.67
2022-10-18T18:44:37.523Z,44.70
2022-10-18T18:47:12.248Z,39.20
2022-10-18T18:49:43.393Z,40.85
2022-10-18T18:52:13.547Z,52.72
2022-10-18T18:54:43.786Z,64.07
2022-10-18T18:57:13.753Z,69.45
2022-10-18T18:59:43.671Z,80.75
2022-10-18T19:02:13.648Z,92.93
2022-10-18T19:04:43.561Z,89.82
2022-10-18T19:07:13.466Z,78.13
2022-10-18T19:09:44.601Z,78.68
2022-10-18T19:12:19.098Z,85.40
2022-10-18T19:14:51.284Z,65.75
2022-10-18T19:17:22.867Z,69.05
2022-10-18T19:19:53.134Z,72.78
2022-10-18T19:22:23.044Z,66.75
2022-10-18T19:24:52.997Z,70.43
2022-10-18T19:27:22.914Z,77.20
2022-10-18T19:29:52.942Z,87.93
2022-10-18T19:32:22.942Z,80.18
2022-10-18T19:34:53.024Z,94.55
2022-10-18T19:37:23.083Z,95.43
2022-10-18T19:39:53.022Z,106.57
2022-10-18T19:42:26.137Z,100.18
2022-10-18T19:44:57.423Z,99.18
2022-10-18T19:47:27.325Z,98.82
2022-10-18T19:49:57.955Z,92.07
2022-10-18T19:52:29.506Z,85.55
2022-10-18T19:54:59.562Z,75.05
2022-10-18T19:57:30.012Z,68.10
2022-10-18T20:00:00.885Z,66.60
2022-10-18T20:02:41.131Z,42.13
2022-10-18T20:05:11.219Z,49.33
2022-10-18T20:07:42.467Z,46.85
2022-10-18T20:10:12.382Z,30.25
2022-10-18T20:12:42.350Z,47.05
2022-10-18T20:15:12.570Z,37.17
2022-10-18T20:17:42.479Z,42.65
2022-10-18T20:20:12.855Z,47.78
2022-10-18T20:22:42.818Z,46.17
2022-10-18T20:25:12.819Z,39.85
2022-10-18T20:27:42.799Z,32.72
2022-10-18T20:30:12.949Z,29.90
2022-10-18T20:32:43.359Z,30.05
2022-10-18T20:35:13.223Z,28.48
2022-10-18T20:37:43.124Z,30.15
2022-10-18T20:40:14.885Z,20.10
2022-10-18T20:42:44.819Z,38.22
2022-10-18T20:45:14.780Z,24.63
2022-10-18T20:47:44.723Z,24.23
2022-10-18T20:50:14.682Z,38.25
2022-10-18T20:52:46.067Z,28.63
2022-10-18T20:55:16.024Z,30.58
2022-10-18T20:57:45.972Z,31.13
2022-10-18T21:00:16.125Z,25.73
2022-10-18T21:02:46.148Z,31.92
2022-10-18T21:05:17.685Z,21.98
2022-10-18T21:07:47.807Z,28.38
2022-10-18T21:10:17.936Z,24.27
2022-10-18T21:12:49.262Z,33.45
2022-10-18T21:15:19.228Z,29.15
2022-10-18T21:17:52.945Z,21.52
2022-10-18T21:20:22.859Z,30.05
2022-10-18T21:22:52.982Z,40.00
2022-10-18T21:25:22.959Z,28.05
2022-10-18T21:27:52.900Z,28.10
2022-10-18T21:30:22.882Z,28.20
2022-10-18T21:32:53.710Z,20.63
2022-10-18T21:35:23.709Z,28.75
2022-10-18T21:37:53.678Z,28.85
2022-10-18T21:40:23.585Z,39.78
2022-10-18T21:42:53.580Z,27.50
2022-10-18T21:45:23.456Z,24.50
2022-10-18T21:47:53.353Z,23.48
2022-10-18T21:50:23.271Z,29.40
2022-10-18T21:52:53.167Z,43.70
2022-10-18T21:55:23.141Z,49.42
2022-10-18T21:57:53.019Z,28.90
2022-10-18T22:00:23.041Z,33.38
2022-10-18T22:03:07.590Z,52.05
2022-10-18T22:05:37.534Z,31.20
2022-10-18T22:08:07.832Z,46.92
2022-10-18T22:10:37.827Z,36.35
2022-10-18T22:13:07.789Z,33.58
2022-10-18T22:18:07.338Z,34.65
2022-10-18T22:20:37.250Z,44.47
2022-10-18T22:23:07.328Z,39.30
2022-10-18T22:25:37.695Z,29.17
2022-10-18T22:28:07.734Z,41.65
2022-10-18T22:30:39.878Z,32.80
2022-10-18T22:33:09.839Z,43.22
2022-10-18T22:35:39.751Z,37.78
2022-10-18T22:38:09.741Z,33.92
2022-10-18T22:40:39.783Z,39.75
2022-10-18T22:43:09.697Z,44.63
2022-10-18T22:45:40.836Z,37.78
2022-10-18T22:48:10.740Z,36.15
2022-10-18T22:50:40.715Z,44.45
2022-10-18T22:53:10.724Z,49.55
2022-10-18T22:55:40.702Z,37.08
2022-10-18T22:58:10.817Z,31.00
2022-10-18T23:00:40.915Z,45.28
2022-10-18T23:03:10.932Z,37.60
2022-10-18T23:05:41.451Z,37.05
2022-10-18T23:08:11.731Z,44.45
2022-10-18T23:10:42.203Z,47.88
2022-10-18T23:13:16.642Z,31.05
2022-10-18T23:15:46.594Z,40.55
2022-10-18T23:18:16.618Z,44.92
2022-10-18T23:20:46.898Z,46.97
2022-10-18T23:23:16.829Z,36.17
2022-10-18T23:25:49.728Z,32.13
2022-10-18T23:28:20.948Z,32.22
2022-10-18T23:30:50.974Z,34.63
2022-10-18T23:33:20.927Z,40.30
2022-10-18T23:35:50.860Z,31.15
2022-10-18T23:38:20.784Z,36.97
2022-10-18T23:40:50.641Z,38.30
2022-10-18T23:43:20.603Z,32.42
2022-10-18T23:45:50.556Z,30.05
2022-10-18T23:48:20.557Z,45.55
2022-10-18T23:50:50.548Z,37.08
2022-10-18T23:53:23.751Z,37.63
2022-10-18T23:56:07.220Z,32.65
2022-10-18T23:58:37.393Z,43.92
